createdAt,value
2024-04-10T00:00:22.278Z,99.90
2024-04-10T00:02:49.392Z,99.90
2024-04-10T00:05:18.977Z,99.90
2024-04-10T00:07:46.218Z,99.90
2024-04-10T00:10:15.152Z,99.90
2024-04-10T00:12:42.193Z,99.90
2024-04-10T00:15:09.061Z,99.90
2024-04-10T00:17:36.165Z,99.90
2024-04-10T00:20:03.323Z,99.90
2024-04-10T00:22:30.562Z,99.90
2024-04-10T00:24:57.403Z,99.90
2024-04-10T00:27:24.211Z,99.90
2024-04-10T00:29:54.020Z,99.90
2024-04-10T00:32:20.965Z,99.90
2024-04-10T00:34:47.912Z,99.90
2024-04-10T00:37:14.731Z,99.90
2024-04-10T00:39:41.591Z,99.90
2024-04-10T00:42:08.541Z,99.90
2024-04-10T00:44:46.863Z,99.90
2024-04-10T00:47:13.779Z,99.90
2024-04-10T00:49:40.785Z,99.90
2024-04-10T00:52:08.695Z,99.90
2024-04-10T00:54:36.775Z,99.90
2024-04-10T00:57:04.489Z,99.90
2024-04-10T00:59:32.008Z,99.90
2024-04-10T01:02:00.209Z,99.90
2024-04-10T01:04:27.593Z,99.90
2024-04-10T01:06:54.431Z,99.90
2024-04-10T01:09:21.525Z,99.90
2024-04-10T01:11:48.883Z,99.90
2024-04-10T01:14:17.456Z,99.90
2024-04-10T01:16:45.164Z,99.90
2024-04-10T01:19:12.007Z,99.90
2024-04-10T01:21:38.839Z,99.90
2024-04-10T01:24:06.159Z,99.90
2024-04-10T01:26:33.288Z,99.90
2024-04-10T01:29:00.169Z,99.90
2024-04-10T01:31:28.546Z,99.90
2024-04-10T01:33:55.585Z,99.90
2024-04-10T01:36:23.162Z,99.90
2024-04-10T01:38:51.298Z,99.90
2024-04-10T01:41:18.304Z,99.90
2024-04-10T01:43:45.168Z,99.90
2024-04-10T01:46:12.582Z,99.90
2024-04-10T01:48:39.581Z,99.90
2024-04-10T01:51:06.534Z,99.90
2024-04-10T01:53:33.599Z,99.90
2024-04-10T01:56:00.614Z,99.90
2024-04-10T01:58:27.533Z,99.90
2024-04-10T02:00:55.649Z,99.90
2024-04-10T02:03:22.748Z,99.90
2024-04-10T02:05:50.997Z,99.90
2024-04-10T02:08:17.877Z,99.90
2024-04-10T02:10:44.783Z,99.90
2024-04-10T02:13:11.609Z,99.90
2024-04-10T02:15:38.439Z,99.90
2024-04-10T02:18:05.995Z,99.90
2024-04-10T02:20:32.935Z,99.90
2024-04-10T02:22:59.880Z,99.90
2024-04-10T02:25:26.710Z,99.90
2024-04-10T02:27:53.586Z,99.90
2024-04-10T02:30:20.403Z,99.90
2024-04-10T02:32:51.120Z,99.90
2024-04-10T02:35:18.654Z,99.90
2024-04-10T02:37:46.169Z,99.90
2024-04-10T02:40:13.102Z,99.90
2024-04-10T02:42:42.110Z,99.90
2024-04-10T02:45:09.088Z,99.90
2024-04-10T02:47:36.007Z,99.90
2024-04-10T02:50:05.732Z,99.90
2024-04-10T02:52:32.608Z,99.90
2024-04-10T02:54:59.447Z,99.90
2024-04-10T02:57:26.496Z,99.90
2024-04-10T02:59:53.569Z,99.90
2024-04-10T03:02:20.438Z,99.90
2024-04-10T03:04:47.410Z,99.90
2024-04-10T03:07:16.486Z,99.90
2024-04-10T03:09:44.064Z,99.90
2024-04-10T03:12:13.015Z,99.90
2024-04-10T03:14:43.894Z,99.90
2024-04-10T03:17:12.784Z,99.90
2024-04-10T03:19:39.878Z,99.90
2024-04-10T03:22:06.718Z,99.90
2024-04-10T03:24:33.752Z,99.90
2024-04-10T03:27:00.976Z,99.90
2024-04-10T03:29:28.181Z,99.90
2024-04-10T03:31:55.778Z,99.90
2024-04-10T03:34:22.671Z,99.90
2024-04-10T03:36:49.951Z,99.90
2024-04-10T03:39:17.296Z,99.90
2024-04-10T03:41:44.151Z,99.90
2024-04-10T03:44:11.000Z,99.90
2024-04-10T03:46:37.957Z,99.90
2024-04-10T03:49:04.802Z,99.90
2024-04-10T03:51:31.862Z,99.90
2024-04-10T03:53:58.676Z,99.90
2024-04-10T03:56:25.547Z,99.90
2024-04-10T03:58:52.746Z,99.90
2024-04-10T04:01:20.757Z,99.90
2024-04-10T04:03:47.794Z,99.90
2024-04-10T04:06:14.670Z,99.90
2024-04-10T04:08:42.461Z,99.90
2024-04-10T04:11:09.396Z,99.90
2024-04-10T04:13:38.676Z,99.90
2024-04-10T04:16:07.301Z,99.90
2024-04-10T04:18:36.021Z,99.90
2024-04-10T04:21:02.959Z,99.90
2024-04-10T04:23:29.862Z,99.90
2024-04-10T04:25:56.840Z,99.90
2024-04-10T04:28:23.703Z,99.90
2024-04-10T04:30:51.062Z,99.90
2024-04-10T04:33:19.624Z,99.90
2024-04-10T04:35:46.962Z,99.90
2024-04-10T04:38:13.883Z,99.90
2024-04-10T04:40:40.776Z,99.90
2024-04-10T04:43:10.754Z,99.90
2024-04-10T04:45:41.818Z,99.90
2024-04-10T04:48:10.018Z,99.90
2024-04-10T04:50:43.925Z,99.90
2024-04-10T04:53:11.831Z,99.90
2024-04-10T04:55:39.857Z,99.90
2024-04-10T04:58:07.013Z,99.90
2024-04-10T05:00:34.305Z,99.90
2024-04-10T05:03:02.141Z,99.90
2024-04-10T05:05:29.136Z,99.90
2024-04-10T05:07:56.019Z,99.90
2024-04-10T05:10:22.921Z,99.90
2024-04-10T05:12:51.413Z,99.90
2024-04-10T05:15:18.262Z,99.90
2024-04-10T05:17:46.599Z,99.90
2024-04-10T05:20:17.747Z,99.90
2024-04-10T05:22:46.070Z,99.90
2024-04-10T05:25:13.078Z,99.90
2024-04-10T05:27:40.083Z,99.90
2024-04-10T05:30:08.808Z,99.90
2024-04-10T05:32:41.277Z,99.90
2024-04-10T05:35:11.254Z,99.90
2024-04-10T05:37:38.409Z,99.90
2024-04-10T05:40:18.025Z,99.90
2024-04-10T05:42:46.944Z,99.90
2024-04-10T05:45:16.256Z,99.90
2024-04-10T05:47:49.221Z,99.90
2024-04-10T05:50:16.599Z,99.90
2024-04-10T05:52:44.247Z,99.90
2024-04-10T05:55:11.967Z,99.90
2024-04-10T05:57:39.297Z,99.90
2024-04-10T06:00:08.478Z,99.90
2024-04-10T06:02:41.578Z,99.90
2024-04-10T06:05:09.879Z,99.90
2024-04-10T06:07:37.570Z,99.90
2024-04-10T06:10:06.175Z,99.90
2024-04-10T06:12:33.337Z,99.90
2024-04-10T06:15:00.262Z,99.90
2024-04-10T06:17:28.067Z,99.90
2024-04-10T06:19:59.443Z,99.90
2024-04-10T06:22:26.432Z,99.90
2024-04-10T06:24:53.535Z,99.90
2024-04-10T06:27:21.685Z,99.90
2024-04-10T06:29:49.190Z,99.90
2024-04-10T06:32:17.437Z,99.90
2024-04-10T06:34:44.415Z,99.90
2024-04-10T06:37:11.324Z,99.90
2024-04-10T06:39:38.234Z,99.90
2024-04-10T06:42:05.419Z,99.90
2024-04-10T06:44:32.889Z,99.90
2024-04-10T06:47:00.636Z,99.90
2024-04-10T06:49:30.882Z,99.90
2024-04-10T06:51:57.957Z,99.90
2024-04-10T06:54:25.263Z,99.90
2024-04-10T06:56:52.147Z,99.90
2024-04-10T06:59:20.212Z,99.90
2024-04-10T07:01:47.673Z,99.90
2024-04-10T07:04:14.684Z,99.90
2024-04-10T07:06:41.635Z,99.90
2024-04-10T07:09:10.973Z,99.90
2024-04-10T07:11:39.365Z,99.90
2024-04-10T07:14:06.622Z,99.90
2024-04-10T07:16:33.690Z,99.90
2024-04-10T07:19:00.905Z,99.90
2024-04-10T07:21:28.128Z,99.90
2024-04-10T07:23:59.429Z,99.90
2024-04-10T07:26:28.411Z,99.90
2024-04-10T07:28:57.690Z,99.90
2024-04-10T07:31:37.608Z,99.90
2024-04-10T07:34:07.244Z,99.90
2024-04-10T07:36:38.335Z,99.90
2024-04-10T07:39:08.586Z,99.90
2024-04-10T07:41:37.470Z,99.90
2024-04-10T07:44:07.009Z,99.90
2024-04-10T07:46:33.976Z,99.90
2024-04-10T07:49:01.064Z,99.90
2024-04-10T07:51:30.964Z,99.90
2024-04-10T07:53:57.898Z,99.90
2024-04-10T07:56:24.944Z,99.90
2024-04-10T07:58:52.102Z,99.90
2024-04-10T08:01:20.334Z,99.90
2024-04-10T08:03:49.548Z,99.90
2024-04-10T08:06:16.520Z,99.90
2024-04-10T08:08:44.161Z,99.90
2024-04-10T08:11:20.226Z,99.90
2024-04-10T08:13:47.460Z,99.90
2024-04-10T08:16:14.540Z,99.90
2024-04-10T08:18:44.871Z,99.90
2024-04-10T08:21:14.727Z,99.90
2024-04-10T08:23:43.344Z,99.90
2024-04-10T08:26:18.794Z,99.90
2024-04-10T08:28:54.145Z,99.90
2024-04-10T08:31:23.491Z,99.90
2024-04-10T08:33:51.326Z,99.90
2024-04-10T08:36:18.594Z,99.90
2024-04-10T08:38:46.420Z,99.90
2024-04-10T08:41:17.805Z,99.90
2024-04-10T08:43:46.334Z,99.90
2024-04-10T08:46:14.506Z,99.90
2024-04-10T08:48:43.429Z,99.90
2024-04-10T08:51:15.095Z,99.90
2024-04-10T08:53:44.584Z,99.90
2024-04-10T08:56:12.967Z,99.90
2024-04-10T08:58:41.101Z,99.90
2024-04-10T09:01:08.180Z,99.90
2024-04-10T09:03:36.411Z,99.90
2024-04-10T09:06:10.120Z,99.90
2024-04-10T09:08:38.691Z,99.70
2024-04-10T09:11:05.948Z,99.30
2024-04-10T09:13:32.892Z,99.70
2024-04-10T09:16:00.809Z,99.10
2024-04-10T09:18:28.528Z,99.00
2024-04-10T09:21:11.883Z,98.90
2024-04-10T09:23:39.374Z,98.00
2024-04-10T09:26:07.397Z,99.50
2024-04-10T09:28:35.061Z,99.40
2024-04-10T09:31:02.619Z,99.30
2024-04-10T09:33:35.589Z,99.00
2024-04-10T09:36:08.323Z,98.30
2024-04-10T09:38:37.579Z,98.20
2024-04-10T09:41:05.266Z,97.60
2024-04-10T09:43:33.290Z,98.50
2024-04-10T09:46:04.258Z,98.50
2024-04-10T09:48:35.681Z,98.70
2024-04-10T09:51:06.850Z,99.40
2024-04-10T09:53:35.545Z,98.20
2024-04-10T09:56:06.828Z,96.00
2024-04-10T09:58:35.270Z,95.50
2024-04-10T10:01:04.083Z,94.80
2024-04-10T10:03:31.974Z,95.40
2024-04-10T10:06:09.243Z,95.00
2024-04-10T10:08:36.938Z,94.40
2024-04-10T10:11:09.421Z,97.20
2024-04-10T10:13:44.957Z,98.60
2024-04-10T10:16:14.309Z,91.50
2024-04-10T10:18:41.674Z,91.70
2024-04-10T10:21:10.996Z,93.00
2024-04-10T10:23:39.773Z,92.70
2024-04-10T10:26:11.578Z,93.10
2024-04-10T10:28:38.698Z,93.90
2024-04-10T10:31:12.379Z,93.60
2024-04-10T10:33:39.840Z,93.50
2024-04-10T10:36:07.431Z,92.60
2024-04-10T10:38:34.677Z,93.10
2024-04-10T10:41:18.260Z,92.70
2024-04-10T10:43:46.446Z,92.90
2024-04-10T10:46:13.806Z,91.70
2024-04-10T10:48:43.305Z,91.00
2024-04-10T10:51:10.460Z,90.60
2024-04-10T10:53:37.433Z,90.20
2024-04-10T10:56:05.045Z,89.80
2024-04-10T10:58:31.929Z,89.80
2024-04-10T11:00:58.904Z,90.00
2024-04-10T11:03:30.226Z,90.00
2024-04-10T11:06:08.821Z,90.00
2024-04-10T11:08:36.004Z,91.20
2024-04-10T11:11:02.999Z,89.60
2024-04-10T11:13:29.833Z,87.20
2024-04-10T11:16:01.150Z,88.60
2024-04-10T11:18:28.356Z,88.00
2024-04-10T11:20:55.560Z,89.50
2024-04-10T11:23:25.275Z,87.50
2024-04-10T11:25:53.052Z,87.00
2024-04-10T11:28:19.884Z,86.00
2024-04-10T11:30:46.756Z,84.90
2024-04-10T11:33:13.975Z,86.00
2024-04-10T11:35:41.671Z,85.70
2024-04-10T11:38:09.004Z,86.10
2024-04-10T11:40:36.043Z,85.20
2024-04-10T11:43:03.416Z,86.50
2024-04-10T11:45:30.513Z,84.50
2024-04-10T11:47:57.620Z,86.40
2024-04-10T11:50:24.760Z,84.50
2024-04-10T11:52:51.696Z,85.70
2024-04-10T11:55:18.568Z,84.70
2024-04-10T11:57:46.595Z,83.40
2024-04-10T12:00:15.598Z,84.20
2024-04-10T12:02:44.116Z,83.10
2024-04-10T12:05:11.353Z,81.10
2024-04-10T12:07:39.265Z,80.20
2024-04-10T12:10:07.218Z,81.00
2024-04-10T12:12:34.610Z,80.90
2024-04-10T12:15:02.183Z,81.00
2024-04-10T12:17:31.070Z,81.10
2024-04-10T12:19:59.015Z,81.00
2024-04-10T12:22:26.140Z,81.10
2024-04-10T12:24:53.206Z,81.80
2024-04-10T12:27:20.090Z,82.20
2024-04-10T12:29:47.346Z,80.70
2024-04-10T12:32:14.437Z,80.20
2024-04-10T12:34:41.844Z,78.90
2024-04-10T12:37:27.999Z,79.00
2024-04-10T12:39:54.832Z,79.40
2024-04-10T12:42:21.765Z,79.00
2024-04-10T12:44:48.757Z,79.00
2024-04-10T12:47:15.685Z,78.00
2024-04-10T12:49:43.711Z,76.70
2024-04-10T12:52:10.726Z,76.00
2024-04-10T12:54:38.564Z,76.30
2024-04-10T12:57:06.174Z,77.00
2024-04-10T12:59:33.178Z,74.90
2024-04-10T13:02:00.196Z,76.70
2024-04-10T13:04:27.140Z,76.60
2024-04-10T13:06:54.035Z,74.50
2024-04-10T13:09:21.878Z,73.00
2024-04-10T13:11:48.927Z,73.70
2024-04-10T13:14:17.070Z,73.20
2024-04-10T13:16:44.154Z,73.30
2024-04-10T13:19:11.248Z,73.00
2024-04-10T13:21:39.429Z,73.60
2024-04-10T13:24:06.755Z,73.20
2024-04-10T13:26:34.372Z,73.90
2024-04-10T13:29:01.468Z,74.10
2024-04-10T13:31:28.488Z,75.10
2024-04-10T13:33:57.231Z,74.10
2024-04-10T13:36:24.384Z,74.30
2024-04-10T13:38:52.443Z,74.30
2024-04-10T13:41:21.247Z,73.50
2024-04-10T13:43:53.310Z,73.50
2024-04-10T13:46:21.230Z,73.70
2024-04-10T13:48:48.589Z,72.70
2024-04-10T13:51:26.798Z,72.50
2024-04-10T13:53:55.126Z,73.40
2024-04-10T13:56:23.066Z,73.30
2024-04-10T13:58:50.926Z,73.00
2024-04-10T14:01:20.219Z,74.10
2024-04-10T14:03:53.167Z,74.10
2024-04-10T14:06:24.567Z,73.00
2024-04-10T14:08:53.318Z,73.10
2024-04-10T14:11:20.721Z,72.40
2024-04-10T14:13:47.769Z,72.90
2024-04-10T14:16:15.168Z,72.70
2024-04-10T14:18:42.583Z,70.70
2024-04-10T14:21:14.435Z,71.90
2024-04-10T14:23:43.105Z,72.70
2024-04-10T14:26:15.243Z,71.90
2024-04-10T14:28:42.547Z,71.80
2024-04-10T14:31:13.045Z,72.10
2024-04-10T14:33:44.827Z,73.40
2024-04-10T14:36:12.566Z,72.70
2024-04-10T14:38:40.236Z,72.20
2024-04-10T14:41:08.511Z,73.00
2024-04-10T14:43:37.585Z,72.60
2024-04-10T14:46:08.927Z,71.20
2024-04-10T14:48:38.213Z,72.90
2024-04-10T14:51:06.635Z,73.90
2024-04-10T14:53:33.727Z,73.80
2024-04-10T14:56:10.442Z,73.90
2024-04-10T14:58:41.392Z,73.70
2024-04-10T15:01:17.773Z,73.90
2024-04-10T15:03:46.021Z,74.80
2024-04-10T15:06:13.711Z,72.50
2024-04-10T15:08:41.018Z,71.80
2024-04-10T15:11:09.062Z,71.70
2024-04-10T15:13:36.830Z,71.90
2024-04-10T15:16:03.895Z,70.80
2024-04-10T15:18:31.046Z,71.20
2024-04-10T15:21:01.982Z,71.50
2024-04-10T15:23:28.958Z,72.50
2024-04-10T15:25:59.487Z,72.70
2024-04-10T15:28:31.308Z,74.00
2024-04-10T15:31:05.832Z,73.60
2024-04-10T15:33:34.803Z,73.30
2024-04-10T15:36:12.805Z,71.70
2024-04-10T15:38:45.453Z,73.40
2024-04-10T15:41:13.227Z,72.40
2024-04-10T15:43:40.445Z,72.90
2024-04-10T15:46:12.513Z,71.00
2024-04-10T15:48:39.900Z,72.60
2024-04-10T15:51:13.081Z,73.40
2024-04-10T15:53:40.682Z,73.70
2024-04-10T15:56:11.900Z,73.00
2024-04-10T15:58:40.258Z,72.00
2024-04-10T16:01:08.715Z,71.40
2024-04-10T16:03:41.805Z,70.90
2024-04-10T16:06:11.506Z,70.70
2024-04-10T16:08:38.821Z,71.20
2024-04-10T16:11:11.192Z,70.90
2024-04-10T16:13:38.025Z,72.40
2024-04-10T16:16:06.429Z,71.70
2024-04-10T16:18:34.071Z,71.80
2024-04-10T16:21:06.805Z,72.00
2024-04-10T16:23:34.325Z,72.00
2024-04-10T16:26:09.016Z,71.80
2024-04-10T16:28:37.255Z,71.70
2024-04-10T16:31:05.023Z,72.50
2024-04-10T16:33:32.117Z,72.10
2024-04-10T16:36:10.620Z,74.20
2024-04-10T16:38:41.517Z,74.30
2024-04-10T16:41:08.456Z,74.20
2024-04-10T16:43:37.996Z,74.40
2024-04-10T16:46:07.227Z,74.90
2024-04-10T16:48:34.517Z,76.10
2024-04-10T16:51:07.174Z,74.50
2024-04-10T16:53:36.205Z,73.10
2024-04-10T16:57:50.301Z,72.70
2024-04-10T17:00:17.354Z,74.10
2024-04-10T17:02:46.558Z,75.40
2024-04-10T17:05:13.635Z,75.70
2024-04-10T17:07:40.474Z,74.60
2024-04-10T17:10:07.561Z,75.60
2024-04-10T17:12:35.208Z,76.80
2024-04-10T17:15:02.574Z,75.70
2024-04-10T17:17:49.637Z,75.00
2024-04-10T17:20:43.490Z,74.80
2024-04-10T17:23:10.384Z,74.70
2024-04-10T17:25:39.591Z,74.90
2024-04-10T17:28:06.713Z,76.80
2024-04-10T17:30:33.575Z,75.70
2024-04-10T17:33:01.121Z,76.30
2024-04-10T17:35:28.078Z,75.70
2024-04-10T17:37:56.118Z,74.60
2024-04-10T17:40:22.961Z,74.70
2024-04-10T17:42:49.799Z,75.60
2024-04-10T17:45:16.964Z,75.80
2024-04-10T17:47:44.151Z,75.90
2024-04-10T17:50:11.138Z,74.60
2024-04-10T17:52:38.492Z,75.00
2024-04-10T17:55:06.156Z,76.80
2024-04-10T17:57:33.761Z,76.40
2024-04-10T18:00:00.878Z,77.90
2024-04-10T18:02:31.275Z,79.40
2024-04-10T18:04:58.303Z,79.40
2024-04-10T18:07:25.171Z,78.50
2024-04-10T18:09:52.032Z,78.50
2024-04-10T18:12:21.170Z,77.70
2024-04-10T18:14:49.112Z,79.50
2024-04-10T18:17:16.200Z,81.20
2024-04-10T18:19:43.493Z,82.20
2024-04-10T18:22:10.532Z,83.20
2024-04-10T18:24:37.360Z,83.60
2024-04-10T18:27:04.608Z,84.00
2024-04-10T18:29:32.025Z,84.60
2024-04-10T18:31:58.969Z,85.30
2024-04-10T18:34:26.667Z,85.60
2024-04-10T18:36:53.847Z,86.30
2024-04-10T18:39:20.712Z,86.70
2024-04-10T18:41:47.605Z,86.80
2024-04-10T18:44:16.531Z,87.70
2024-04-10T18:46:43.639Z,88.20
2024-04-10T18:49:10.818Z,88.40
2024-04-10T18:51:38.322Z,88.30
2024-04-10T18:54:06.729Z,88.50
2024-04-10T18:56:34.626Z,89.10
2024-04-10T18:59:02.102Z,89.30
2024-04-10T19:01:28.958Z,89.70
2024-04-10T19:03:56.190Z,88.60
2024-04-10T19:06:25.001Z,88.00
2024-04-10T19:08:51.945Z,87.30
2024-04-10T19:11:19.107Z,88.60
2024-04-10T19:13:46.113Z,90.20
2024-04-10T19:16:13.573Z,90.90
2024-04-10T19:18:44.896Z,91.20
2024-04-10T19:21:16.541Z,92.30
2024-04-10T19:23:43.462Z,92.40
2024-04-10T19:26:12.765Z,93.00
2024-04-10T19:28:39.667Z,92.80
2024-04-10T19:31:06.842Z,92.50
2024-04-10T19:33:38.292Z,92.00
2024-04-10T19:36:06.846Z,92.40
2024-04-10T19:38:34.303Z,92.90
2024-04-10T19:41:02.911Z,93.20
2024-04-10T19:43:30.148Z,93.50
2024-04-10T19:45:57.229Z,93.70
2024-04-10T19:48:25.038Z,94.00
2024-04-10T19:51:06.828Z,93.80
2024-04-10T19:53:34.942Z,94.30
2024-04-10T19:56:11.275Z,94.10
2024-04-10T19:58:39.861Z,94.40
2024-04-10T20:01:12.133Z,94.90
2024-04-10T20:03:43.022Z,95.10
2024-04-10T20:06:11.094Z,95.60
2024-04-10T20:08:42.065Z,96.10
2024-04-10T20:11:10.539Z,96.00
2024-04-10T20:13:38.043Z,96.40
2024-04-10T20:16:08.125Z,96.20
2024-04-10T20:18:36.530Z,96.20
2024-04-10T20:21:07.438Z,97.00
2024-04-10T20:23:35.821Z,97.80
2024-04-10T20:26:04.481Z,97.40
2024-04-10T20:28:32.944Z,97.10
2024-04-10T20:31:04.898Z,97.50
2024-04-10T20:33:32.736Z,97.10
2024-04-10T20:36:00.254Z,97.20
2024-04-10T20:38:27.840Z,97.10
2024-04-10T20:41:06.535Z,97.70
2024-04-10T20:43:34.302Z,97.10
2024-04-10T20:46:02.764Z,96.80
2024-04-10T20:48:33.730Z,96.80
2024-04-10T20:51:13.771Z,97.70
2024-04-10T20:53:46.069Z,98.20
2024-04-10T20:56:16.921Z,98.40
2024-04-10T20:58:44.051Z,98.30
2024-04-10T21:01:14.406Z,97.70
2024-04-10T21:03:43.743Z,98.10
2024-04-10T21:06:13.265Z,98.10
2024-04-10T21:09:03.578Z,98.40
2024-04-10T21:11:51.328Z,98.70
2024-04-10T21:14:36.962Z,99.00
2024-04-10T21:17:22.563Z,99.30
2024-04-10T21:20:08.073Z,99.30
2024-04-10T21:22:54.055Z,99.00
2024-04-10T21:25:48.797Z,99.30
2024-04-10T21:28:35.083Z,99.80
2024-04-10T21:31:27.734Z,99.90
2024-04-10T21:34:14.178Z,99.90
2024-04-10T21:36:59.821Z,99.70
2024-04-10T21:39:45.937Z,99.40
2024-04-10T21:42:31.776Z,99.40
2024-04-10T21:45:17.967Z,99.90
2024-04-10T21:48:03.906Z,99.80
2024-04-10T21:50:49.818Z,99.90
2024-04-10T21:53:35.662Z,99.90
2024-04-10T21:56:25.848Z,99.90
2024-04-10T21:59:12.157Z,99.90
2024-04-10T22:04:47.312Z,99.90
2024-04-10T22:07:34.916Z,99.90
2024-04-10T22:10:02.040Z,99.90
2024-04-10T22:12:29.731Z,99.90
2024-04-10T22:14:56.843Z,99.90
2024-04-10T22:17:42.596Z,99.90
2024-04-10T22:20:30.029Z,99.90
2024-04-10T22:23:15.414Z,99.90
2024-04-10T22:25:52.660Z,99.90
2024-04-10T22:28:23.924Z,99.90
2024-04-10T22:30:51.158Z,99.90
2024-04-10T22:33:20.047Z,99.90
2024-04-10T22:35:57.322Z,99.90
2024-04-10T22:38:24.339Z,99.90
2024-04-10T22:40:51.359Z,99.90
2024-04-10T22:43:18.258Z,99.90
2024-04-10T22:45:45.232Z,99.90
2024-04-10T22:48:13.104Z,99.90
2024-04-10T22:50:40.297Z,99.90
2024-04-10T22:53:07.965Z,99.90
2024-04-10T22:55:34.895Z,99.90
2024-04-10T22:58:03.349Z,99.90
2024-04-10T23:00:30.502Z,99.90
2024-04-10T23:02:57.715Z,99.90
2024-04-10T23:05:40.928Z,99.90
2024-04-10T23:08:29.062Z,99.90
2024-04-10T23:10:58.416Z,99.90
2024-04-10T23:13:25.272Z,99.90
2024-04-10T23:15:52.173Z,99.90
2024-04-10T23:18:26.036Z,99.90
2024-04-10T23:21:04.899Z,99.90
2024-04-10T23:23:32.124Z,99.90
2024-04-10T23:25:59.048Z,99.90
2024-04-10T23:28:25.906Z,99.90
2024-04-10T23:30:52.751Z,99.90
2024-04-10T23:33:20.028Z,99.90
2024-04-10T23:35:47.304Z,99.90
2024-04-10T23:38:14.523Z,99.90
2024-04-10T23:40:43.194Z,99.90
2024-04-10T23:43:11.349Z,99.90
2024-04-10T23:45:38.908Z,99.90
2024-04-10T23:48:06.159Z,99.90
2024-04-10T23:50:33.308Z,99.90
2024-04-10T23:53:01.011Z,99.90
2024-04-10T23:55:27.903Z,99.90
2024-04-10T23:58:01.175Z,99.90
